createdAt,value
2018-06-07T00:02:24.068Z,12.60
2018-06-07T00:04:55.507Z,12.60
2018-06-07T00:07:27.072Z,12.70
2018-06-07T00:09:59.241Z,12.70
2018-06-07T00:12:30.658Z,12.70
2018-06-07T00:15:01.950Z,12.70
2018-06-07T00:17:34.004Z,12.80
2018-06-07T00:20:05.583Z,12.80
2018-06-07T00:22:36.676Z,12.80
2018-06-07T00:25:07.960Z,12.80
2018-06-07T00:27:40.168Z,12.80
2018-06-07T00:30:11.913Z,12.80
2018-06-07T00:32:43.210Z,12.70
2018-06-07T00:35:15.198Z,12.70
2018-06-07T00:37:46.434Z,12.70
2018-06-07T00:40:17.832Z,12.70
2018-06-07T00:42:49.018Z,12.60
2018-06-07T00:45:21.022Z,12.70
2018-06-07T00:47:52.930Z,12.60
2018-06-07T00:50:24.284Z,12.60
2018-06-07T00:52:56.390Z,12.60
2018-06-07T00:55:28.556Z,12.70
2018-06-07T00:58:00.920Z,12.60
2018-06-07T01:00:32.246Z,12.60
2018-06-07T01:03:03.630Z,12.60
2018-06-07T01:05:35.941Z,12.70
2018-06-07T01:08:07.254Z,12.80
2018-06-07T01:10:38.631Z,12.80
2018-06-07T01:13:09.993Z,12.70
2018-06-07T01:15:42.072Z,12.70
2018-06-07T01:18:13.925Z,12.70
2018-06-07T01:20:45.170Z,12.60
2018-06-07T01:23:16.422Z,12.60
2018-06-07T01:25:48.553Z,12.60
2018-06-07T01:28:19.682Z,12.60
2018-06-07T01:32:00.298Z,12.70
2018-06-07T01:34:31.140Z,12.70
2018-06-07T01:37:02.387Z,12.80
2018-06-07T01:39:33.466Z,13.00
2018-06-07T01:42:04.712Z,13.10
2018-06-07T01:44:35.997Z,13.20
2018-06-07T01:47:07.903Z,13.10
2018-06-07T01:49:40.128Z,13.10
2018-06-07T01:52:11.594Z,13.10
2018-06-07T01:54:42.764Z,13.00
2018-06-07T01:57:14.210Z,13.10
2018-06-07T01:59:46.096Z,13.10
2018-06-07T02:02:17.528Z,13.10
2018-06-07T02:04:48.760Z,13.00
2018-06-07T02:07:20.673Z,12.90
2018-06-07T02:09:51.924Z,12.70
2018-06-07T02:12:23.301Z,12.60
2018-06-07T02:14:54.556Z,12.50
2018-06-07T02:17:26.566Z,12.40
2018-06-07T02:19:57.149Z,12.30
2018-06-07T02:22:28.420Z,12.30
2018-06-07T02:24:59.776Z,12.20
2018-06-07T02:27:31.664Z,12.10
2018-06-07T02:30:03.723Z,12.10
2018-06-07T02:32:34.909Z,12.10
2018-06-07T02:35:06.138Z,12.30
2018-06-07T02:37:38.024Z,12.40
2018-06-07T02:40:08.746Z,12.50
2018-06-07T02:42:39.746Z,12.50
2018-06-07T02:45:10.899Z,12.80
2018-06-07T02:47:43.061Z,12.90
2018-06-07T02:50:15.014Z,12.80
2018-06-07T02:52:46.422Z,12.70
2018-06-07T02:55:17.636Z,12.60
2018-06-07T02:57:49.760Z,12.50
2018-06-07T03:00:20.960Z,12.50
2018-06-07T03:02:52.205Z,12.50
2018-06-07T03:05:24.381Z,12.40
2018-06-07T03:07:56.441Z,12.50
2018-06-07T03:10:27.782Z,12.50
2018-06-07T03:12:59.054Z,12.60
2018-06-07T03:15:30.340Z,12.60
2018-06-07T03:18:02.334Z,12.60
2018-06-07T03:20:33.656Z,12.70
2018-06-07T03:23:04.934Z,12.70
2018-06-07T03:25:36.936Z,12.70
2018-06-07T03:28:09.175Z,12.80
2018-06-07T03:30:40.416Z,12.80
2018-06-07T03:33:11.004Z,12.80
2018-06-07T03:35:42.983Z,12.80
2018-06-07T03:38:14.971Z,12.80
2018-06-07T03:40:46.246Z,12.80
2018-06-07T03:43:18.076Z,12.70
2018-06-07T03:45:49.845Z,12.80
2018-06-07T03:48:21.006Z,12.80
2018-06-07T03:50:52.472Z,12.90
2018-06-07T03:53:24.364Z,13.00
2018-06-07T03:55:56.850Z,13.10
2018-06-07T03:58:28.302Z,13.40
2018-06-07T04:00:59.768Z,13.70
2018-06-07T04:03:32.082Z,14.10
2018-06-07T04:06:03.346Z,14.50
2018-06-07T04:08:35.412Z,14.50
2018-06-07T04:11:06.593Z,14.30
2018-06-07T04:13:38.812Z,14.10
2018-06-07T04:16:09.471Z,14.10
2018-06-07T04:18:41.086Z,14.30
2018-06-07T04:21:12.611Z,14.40
2018-06-07T04:23:44.675Z,14.50
2018-06-07T04:26:16.222Z,14.60
2018-06-07T04:28:47.671Z,14.70
2018-06-07T04:31:19.166Z,14.90
2018-06-07T04:33:51.368Z,14.90
2018-06-07T04:36:22.868Z,15.10
2018-06-07T04:38:54.449Z,15.20
2018-06-07T04:41:26.130Z,15.30
2018-06-07T04:43:58.221Z,15.40
2018-06-07T04:46:29.964Z,15.50
2018-06-07T04:49:01.498Z,15.60
2018-06-07T04:51:33.926Z,15.70
2018-06-07T04:54:06.371Z,15.80
2018-06-07T04:56:37.868Z,15.90
2018-06-07T04:59:09.435Z,15.90
2018-06-07T05:01:41.418Z,16.00
2018-06-07T05:04:13.127Z,16.10
2018-06-07T05:06:45.705Z,16.70
2018-06-07T05:09:17.972Z,17.70
2018-06-07T05:11:49.886Z,18.70
2018-06-07T05:14:22.102Z,19.50
2018-06-07T05:16:54.068Z,20.30
2018-06-07T05:19:26.785Z,20.90
2018-06-07T05:21:59.594Z,21.30
2018-06-07T05:24:32.399Z,21.60
2018-06-07T05:27:04.841Z,21.80
2018-06-07T05:29:38.078Z,21.90
2018-06-07T05:32:10.411Z,22.10
2018-06-07T05:34:43.692Z,22.40
2018-06-07T05:37:16.285Z,22.70
2018-06-07T05:39:48.990Z,22.60
2018-06-07T05:42:21.066Z,22.60
2018-06-07T05:44:54.276Z,22.70
2018-06-07T05:47:27.095Z,22.70
2018-06-07T05:49:59.113Z,22.80
2018-06-07T05:52:31.192Z,23.10
2018-06-07T05:55:03.148Z,23.10
2018-06-07T05:57:35.162Z,23.10
2018-06-07T06:00:07.992Z,23.30
2018-06-07T06:02:40.174Z,23.40
2018-06-07T06:05:12.144Z,23.70
2018-06-07T06:07:44.678Z,23.90
2018-06-07T06:10:17.918Z,24.30
2018-06-07T06:12:50.080Z,24.50
2018-06-07T06:15:22.671Z,24.90
2018-06-07T06:17:55.360Z,24.80
2018-06-07T06:20:27.851Z,24.90
2018-06-07T06:22:59.936Z,24.90
2018-06-07T06:25:32.998Z,24.90
2018-06-07T06:28:05.646Z,24.80
2018-06-07T06:30:37.828Z,24.60
2018-06-07T06:33:09.767Z,24.50
2018-06-07T06:35:42.679Z,24.90
2018-06-07T06:38:33.282Z,25.20
2018-06-07T06:41:05.400Z,25.20
2018-06-07T06:43:38.578Z,25.30
2018-06-07T06:46:11.046Z,25.40
2018-06-07T06:48:43.180Z,25.30
2018-06-07T06:51:15.236Z,25.30
2018-06-07T06:53:47.142Z,25.40
2018-06-07T06:56:19.234Z,25.50
2018-06-07T06:58:51.079Z,25.60
2018-06-07T07:01:30.469Z,25.80
2018-06-07T07:04:02.549Z,25.90
2018-06-07T07:06:34.576Z,26.00
2018-06-07T07:11:47.671Z,26.30
2018-06-07T07:14:21.378Z,26.30
2018-06-07T07:16:53.412Z,26.60
2018-06-07T07:19:31.838Z,26.70
2018-06-07T07:22:05.664Z,27.00
2018-06-07T07:24:39.641Z,26.80
2018-06-07T07:27:13.171Z,26.70
2018-06-07T07:29:46.369Z,26.80
2018-06-07T07:32:19.598Z,27.10
2018-06-07T07:34:51.709Z,27.40
2018-06-07T07:37:23.911Z,27.60
2018-06-07T07:39:56.656Z,27.70
2018-06-07T07:42:28.500Z,27.80
2018-06-07T07:45:00.322Z,27.90
2018-06-07T07:47:32.814Z,27.90
2018-06-07T07:50:05.666Z,28.00
2018-06-07T07:52:37.438Z,28.20
2018-06-07T07:55:10.219Z,27.90
2018-06-07T07:57:42.886Z,27.90
2018-06-07T08:00:14.208Z,28.10
2018-06-07T08:02:47.740Z,28.20
2018-06-07T08:05:19.370Z,28.10
2018-06-07T08:07:52.731Z,28.60
2018-06-07T08:10:24.719Z,28.40
2018-06-07T08:17:57.333Z,28.30
2018-06-07T08:20:30.345Z,28.40
2018-06-07T08:23:02.053Z,28.40
2018-06-07T08:25:34.624Z,28.10
2018-06-07T08:28:07.794Z,28.00
2018-06-07T08:30:39.496Z,27.90
2018-06-07T08:33:11.320Z,28.20
2018-06-07T08:35:44.294Z,28.50
2018-06-07T08:38:17.497Z,28.60
2018-06-07T08:40:49.403Z,28.60
2018-06-07T08:43:22.215Z,28.20
2018-06-07T08:45:55.170Z,28.30
2018-06-07T08:48:26.976Z,28.30
2018-06-07T08:50:59.205Z,28.40
2018-06-07T08:53:31.885Z,28.50
2018-06-07T08:56:04.168Z,28.50
2018-06-07T08:58:36.041Z,28.60
2018-06-07T09:01:08.255Z,28.80
2018-06-07T09:03:40.445Z,28.60
2018-06-07T09:06:12.485Z,28.50
2018-06-07T09:08:44.594Z,28.70
2018-06-07T09:11:17.880Z,28.50
2018-06-07T09:13:49.914Z,28.40
2018-06-07T09:16:22.916Z,28.50
2018-06-07T09:18:55.863Z,28.60
2018-06-07T09:21:31.543Z,28.90
2018-06-07T09:24:05.111Z,28.90
2018-06-07T09:26:36.971Z,28.60
2018-06-07T09:29:08.839Z,28.20
2018-06-07T09:31:40.637Z,28.60
2018-06-07T09:34:12.784Z,29.00
2018-06-07T09:36:44.950Z,29.50
2018-06-07T09:39:17.247Z,29.60
2018-06-07T09:41:49.765Z,29.40
2018-06-07T09:44:21.413Z,29.50
2018-06-07T09:46:55.295Z,29.30
2018-06-07T09:49:27.848Z,29.40
2018-06-07T09:52:01.070Z,29.20
2018-06-07T09:54:34.044Z,29.10
2018-06-07T09:57:05.851Z,29.00
2018-06-07T09:59:38.294Z,29.00
2018-06-07T10:02:09.618Z,28.80
2018-06-07T10:04:41.414Z,29.00
2018-06-07T10:07:14.243Z,28.90
2018-06-07T10:09:46.888Z,28.90
2018-06-07T10:12:18.805Z,29.20
2018-06-07T10:14:50.637Z,28.80
2018-06-07T10:17:23.221Z,28.70
2018-06-07T10:19:55.502Z,28.60
2018-06-07T10:22:27.631Z,29.00
2018-06-07T10:25:00.515Z,29.50
2018-06-07T10:27:34.386Z,29.70
2018-06-07T10:30:06.220Z,29.60
2018-06-07T10:32:37.956Z,29.70
2018-06-07T10:35:10.252Z,29.40
2018-06-07T10:37:41.952Z,29.30
2018-06-07T10:40:18.816Z,29.40
2018-06-07T10:42:50.642Z,29.30
2018-06-07T10:45:23.590Z,29.60
2018-06-07T10:47:56.390Z,29.80
2018-06-07T10:50:28.457Z,30.20
2018-06-07T10:53:00.228Z,29.80
2018-06-07T10:55:32.642Z,29.30
2018-06-07T10:58:05.525Z,29.00
2018-06-07T11:00:37.648Z,29.00
2018-06-07T11:03:09.603Z,29.30
2018-06-07T11:05:42.108Z,29.20
2018-06-07T11:08:13.778Z,29.20
2018-06-07T11:10:46.601Z,29.40
2018-06-07T11:13:19.204Z,29.70
2018-06-07T11:15:51.554Z,29.80
2018-06-07T11:18:23.370Z,29.70
2018-06-07T11:20:54.303Z,29.60
2018-06-07T11:23:29.575Z,29.50
2018-06-07T11:26:01.901Z,29.90
2018-06-07T11:28:33.660Z,30.30
2018-06-07T11:31:04.745Z,30.00
2018-06-07T11:33:36.608Z,29.90
2018-06-07T11:36:09.212Z,30.10
2018-06-07T11:38:40.881Z,30.30
2018-06-07T11:41:13.860Z,30.20
2018-06-07T11:43:46.317Z,30.00
2018-06-07T11:46:17.274Z,30.00
2018-06-07T11:48:48.931Z,30.10
2018-06-07T11:51:21.010Z,30.10
2018-06-07T11:53:53.486Z,29.90
2018-06-07T11:56:25.433Z,29.80
2018-06-07T11:58:58.302Z,30.00
2018-06-07T12:01:30.434Z,30.30
2018-06-07T12:04:02.930Z,30.50
2018-06-07T12:06:34.634Z,30.30
2018-06-07T12:09:07.706Z,30.00
2018-06-07T12:11:39.875Z,29.70
2018-06-07T12:14:11.906Z,29.80
2018-06-07T12:16:43.722Z,29.50
2018-06-07T12:19:16.131Z,29.20
2018-06-07T12:21:48.920Z,29.40
2018-06-07T12:24:20.648Z,29.80
2018-06-07T12:26:52.441Z,29.90
2018-06-07T12:29:24.673Z,30.00
2018-06-07T12:31:57.424Z,29.90
2018-06-07T12:34:29.268Z,29.80
2018-06-07T12:37:01.088Z,30.10
2018-06-07T12:39:35.558Z,30.30
2018-06-07T12:42:07.414Z,30.30
2018-06-07T12:44:40.003Z,30.00
2018-06-07T12:47:15.107Z,29.50
2018-06-07T12:49:47.098Z,29.30
2018-06-07T12:52:19.433Z,29.30
2018-06-07T12:54:51.329Z,29.50
2018-06-07T12:57:24.009Z,29.60
2018-06-07T12:59:55.983Z,29.80
2018-06-07T13:02:27.717Z,29.90
2018-06-07T13:04:59.484Z,30.10
2018-06-07T13:07:31.349Z,30.00
2018-06-07T13:10:04.304Z,29.80
2018-06-07T13:12:36.163Z,29.90
2018-06-07T13:15:08.065Z,30.30
2018-06-07T13:17:39.053Z,30.40
2018-06-07T13:20:11.587Z,30.20
2018-06-07T13:22:43.716Z,30.10
2018-06-07T13:25:16.086Z,30.30
2018-06-07T13:30:19.796Z,30.50
2018-06-07T13:32:50.800Z,30.40
2018-06-07T13:35:23.214Z,30.50
2018-06-07T13:37:56.190Z,30.50
2018-06-07T13:40:28.451Z,30.40
2018-06-07T13:43:01.094Z,30.10
2018-06-07T13:45:34.628Z,29.80
2018-06-07T13:48:15.392Z,29.80
2018-06-07T13:50:47.282Z,30.00
2018-06-07T13:53:20.716Z,30.00
2018-06-07T13:55:53.414Z,30.00
2018-06-07T13:58:25.150Z,29.80
2018-06-07T14:00:56.625Z,29.90
2018-06-07T14:03:33.695Z,30.10
2018-06-07T14:06:06.884Z,30.20
2018-06-07T14:08:38.786Z,30.10
2018-06-07T14:11:10.624Z,30.00
2018-06-07T14:13:45.078Z,29.90
2018-06-07T14:16:16.732Z,29.90
2018-06-07T14:18:48.963Z,29.80
2018-06-07T14:21:21.914Z,29.60
2018-06-07T14:23:54.868Z,29.40
2018-06-07T14:26:26.755Z,29.20
2018-06-07T14:28:58.432Z,28.80
2018-06-07T14:31:30.824Z,28.60
2018-06-07T14:34:02.527Z,28.50
2018-06-07T14:36:35.581Z,28.20
2018-06-07T14:39:08.339Z,27.90
2018-06-07T14:41:41.215Z,27.70
2018-06-07T14:44:13.779Z,27.60
2018-06-07T14:46:45.921Z,27.50
2018-06-07T14:49:19.123Z,27.50
2018-06-07T14:51:53.416Z,27.40
2018-06-07T14:54:27.379Z,27.30
2018-06-07T14:57:00.817Z,27.20
2018-06-07T14:59:33.530Z,27.30
2018-06-07T15:02:06.341Z,27.40
2018-06-07T15:04:38.445Z,27.40
2018-06-07T15:07:10.385Z,27.40
2018-06-07T15:09:43.150Z,27.50
2018-06-07T15:12:16.283Z,27.50
2018-06-07T15:14:48.264Z,27.70
2018-06-07T15:17:21.135Z,27.80
2018-06-07T15:20:08.662Z,27.70
2018-06-07T15:22:45.573Z,27.70
2018-06-07T15:25:18.599Z,27.60
2018-06-07T15:27:51.285Z,27.50
2018-06-07T15:30:23.359Z,27.40
2018-06-07T15:32:55.492Z,27.20
2018-06-07T15:35:28.377Z,27.10
2018-06-07T15:38:01.661Z,27.10
2018-06-07T15:40:34.859Z,27.00
2018-06-07T15:43:07.881Z,26.90
2018-06-07T15:45:40.547Z,26.90
2018-06-07T15:48:12.343Z,26.90
2018-06-07T15:50:44.309Z,26.90
2018-06-07T15:53:17.285Z,26.70
2018-06-07T15:55:50.244Z,26.60
2018-06-07T15:58:22.351Z,26.60
2018-06-07T16:00:54.592Z,26.60
2018-06-07T16:03:26.598Z,26.50
2018-06-07T16:05:58.541Z,26.40
2018-06-07T16:08:31.682Z,26.40
2018-06-07T16:11:04.349Z,26.40
2018-06-07T16:13:37.096Z,26.50
2018-06-07T16:16:09.754Z,26.60
2018-06-07T16:18:41.836Z,26.60
2018-06-07T16:21:13.945Z,26.70
2018-06-07T16:23:47.987Z,26.60
2018-06-07T16:26:19.971Z,26.40
2018-06-07T16:28:52.737Z,26.30
2018-06-07T16:31:25.711Z,26.30
2018-06-07T16:33:58.899Z,26.30
2018-06-07T16:36:30.934Z,26.30
2018-06-07T16:39:02.102Z,26.30
2018-06-07T16:41:34.418Z,26.20
2018-06-07T16:44:06.600Z,26.10
2018-06-07T16:46:39.987Z,25.90
2018-06-07T16:49:13.314Z,25.90
2018-06-07T16:51:46.602Z,25.90
2018-06-07T16:56:49.440Z,25.90
2018-06-07T16:59:22.070Z,25.90
2018-06-07T17:01:55.146Z,26.00
2018-06-07T17:04:28.168Z,26.10
2018-06-07T17:07:00.440Z,26.10
2018-06-07T17:09:35.995Z,26.10
2018-06-07T17:12:08.082Z,26.00
2018-06-07T17:14:41.306Z,25.90
2018-06-07T17:17:12.767Z,25.80
2018-06-07T17:19:46.062Z,25.70
2018-06-07T17:22:18.073Z,25.60
2018-06-07T17:24:49.908Z,25.60
2018-06-07T17:27:25.498Z,25.50
2018-06-07T17:29:58.152Z,25.40
2018-06-07T17:32:30.300Z,25.40
2018-06-07T17:35:02.168Z,25.30
2018-06-07T17:37:35.359Z,25.20
2018-06-07T17:40:08.145Z,25.10
2018-06-07T17:42:40.317Z,25.00
2018-06-07T17:45:14.360Z,24.90
2018-06-07T17:47:46.985Z,24.80
2018-06-07T17:50:18.985Z,24.70
2018-06-07T17:52:51.218Z,24.70
2018-06-07T17:55:25.515Z,24.60
2018-06-07T18:00:29.464Z,24.40
2018-06-07T18:03:01.369Z,24.30
2018-06-07T18:05:34.066Z,24.20
2018-06-07T18:08:07.245Z,24.10
2018-06-07T18:10:39.136Z,23.90
2018-06-07T18:13:11.048Z,23.80
2018-06-07T18:15:43.741Z,23.70
2018-06-07T18:18:16.111Z,23.50
2018-06-07T18:20:48.258Z,23.40
2018-06-07T18:23:23.641Z,23.20
2018-06-07T18:25:56.731Z,23.00
2018-06-07T18:28:28.810Z,22.80
2018-06-07T18:31:00.872Z,22.50
2018-06-07T18:33:33.480Z,22.30
2018-06-07T18:36:06.385Z,22.10
2018-06-07T18:38:38.292Z,21.90
2018-06-07T18:41:10.461Z,21.70
2018-06-07T18:43:43.068Z,21.50
2018-06-07T18:46:15.441Z,21.30
2018-06-07T18:48:47.495Z,21.10
2018-06-07T18:51:20.491Z,20.90
2018-06-07T18:53:53.199Z,20.70
2018-06-07T18:56:25.230Z,20.50
2018-06-07T18:58:57.333Z,20.30
2018-06-07T19:01:31.501Z,20.20
2018-06-07T19:04:04.577Z,20.00
2018-06-07T19:06:36.624Z,19.80
2018-06-07T19:09:13.946Z,19.60
2018-06-07T19:11:46.653Z,19.50
2018-06-07T19:14:24.275Z,19.30
2018-06-07T19:16:56.075Z,19.10
2018-06-07T19:19:33.788Z,19.00
2018-06-07T19:22:06.164Z,18.80
2018-06-07T19:27:16.107Z,18.50
2018-06-07T19:29:49.385Z,18.40
2018-06-07T19:32:28.212Z,18.30
2018-06-07T19:35:05.837Z,18.30
2018-06-07T19:37:38.270Z,18.20
2018-06-07T19:40:16.436Z,18.10
2018-06-07T19:42:47.658Z,17.90
2018-06-07T19:45:19.724Z,17.80
2018-06-07T19:47:51.867Z,17.60
2018-06-07T19:50:22.950Z,17.50
2018-06-07T19:52:54.192Z,17.40
2018-06-07T19:55:26.596Z,17.40
2018-06-07T19:57:58.975Z,17.30
2018-06-07T20:00:37.674Z,17.30
2018-06-07T20:03:09.103Z,17.20
2018-06-07T20:05:41.186Z,17.10
2018-06-07T20:08:12.842Z,17.00
2018-06-07T20:10:43.886Z,17.00
2018-06-07T20:13:15.969Z,17.00
2018-06-07T20:15:47.959Z,16.90
2018-06-07T20:18:20.546Z,16.90
2018-06-07T20:20:51.603Z,16.70
2018-06-07T20:23:23.965Z,16.60
2018-06-07T20:25:55.942Z,16.50
2018-06-07T20:28:28.319Z,16.40
2018-06-07T20:30:59.382Z,16.40
2018-06-07T20:33:31.838Z,16.30
2018-06-07T20:36:04.278Z,16.20
2018-06-07T20:38:35.774Z,16.10
2018-06-07T20:41:07.618Z,16.00
2018-06-07T20:43:39.800Z,15.90
2018-06-07T20:46:11.508Z,15.80
2018-06-07T20:48:43.065Z,15.80
2018-06-07T20:51:16.079Z,15.80
2018-06-07T20:53:48.318Z,15.70
2018-06-07T20:56:20.575Z,15.60
2018-06-07T20:58:51.576Z,15.50
2018-06-07T21:01:22.720Z,15.40
2018-06-07T21:03:54.585Z,15.40
2018-06-07T21:06:25.880Z,15.40
2018-06-07T21:08:57.209Z,15.40
2018-06-07T21:11:29.304Z,15.40
2018-06-07T21:14:01.374Z,15.40
2018-06-07T21:16:32.857Z,15.30
2018-06-07T21:19:04.231Z,15.20
2018-06-07T21:21:36.084Z,15.20
2018-06-07T21:24:07.810Z,15.10
2018-06-07T21:26:39.429Z,15.10
2018-06-07T21:29:10.717Z,15.00
2018-06-07T21:31:42.661Z,14.90
2018-06-07T21:34:14.645Z,14.90
2018-06-07T21:36:46.198Z,14.80
2018-06-07T21:39:17.890Z,14.70
2018-06-07T21:41:49.647Z,14.70
2018-06-07T21:44:20.710Z,14.70
2018-06-07T21:46:53.028Z,14.70
2018-06-07T21:49:24.883Z,14.70
2018-06-07T21:51:56.831Z,14.70
2018-06-07T21:54:27.877Z,14.70
2018-06-07T21:56:58.864Z,14.70
2018-06-07T21:59:31.122Z,14.70
2018-06-07T22:02:03.286Z,14.60
2018-06-07T22:04:34.424Z,14.60
2018-06-07T22:07:05.602Z,14.50
2018-06-07T22:09:37.766Z,14.50
2018-06-07T22:12:09.484Z,14.50
2018-06-07T22:14:41.792Z,14.50
2018-06-07T22:17:12.715Z,14.50
2018-06-07T22:19:44.403Z,14.40
2018-06-07T22:22:15.603Z,14.40
2018-06-07T22:24:46.613Z,14.30
2018-06-07T22:27:18.343Z,14.30
2018-06-07T22:29:49.849Z,14.30
2018-06-07T22:32:20.817Z,14.20
2018-06-07T22:34:52.821Z,14.20
2018-06-07T22:37:24.368Z,14.10
2018-06-07T22:39:56.951Z,14.10
2018-06-07T22:42:29.160Z,14.00
2018-06-07T22:45:00.259Z,14.00
2018-06-07T22:47:31.807Z,14.00
2018-06-07T22:50:04.390Z,14.00
2018-06-07T22:52:35.521Z,14.00
2018-06-07T22:55:06.421Z,14.00
2018-06-07T22:57:37.957Z,13.90
2018-06-07T23:02:51.465Z,13.90
2018-06-07T23:05:25.435Z,14.00
2018-06-07T23:07:57.471Z,13.90
2018-06-07T23:10:29.972Z,13.80
2018-06-07T23:13:01.391Z,13.80
2018-06-07T23:15:33.019Z,13.80
2018-06-07T23:18:05.481Z,13.80
2018-06-07T23:20:36.439Z,13.70
2018-06-07T23:23:07.932Z,13.70
2018-06-07T23:25:39.617Z,13.70
2018-06-07T23:28:11.068Z,13.70
2018-06-07T23:30:42.377Z,13.60
2018-06-07T23:33:13.767Z,13.50
2018-06-07T23:35:45.846Z,13.40
2018-06-07T23:38:18.433Z,13.40
2018-06-07T23:40:49.717Z,13.40
2018-06-07T23:43:21.645Z,13.30
2018-06-07T23:45:54.172Z,13.30
2018-06-07T23:48:25.402Z,13.20
2018-06-07T23:50:56.709Z,13.20
2018-06-07T23:53:28.998Z,13.10
2018-06-07T23:56:00.840Z,13.10
2018-06-07T23:58:32.064Z,13.10
